KGON

Groton-New London Airport

Groton (New London), Connecticut, USA
METAR KGON 201256Z 24014G19KT 10SM CLR 03/M02 A2980 RMK AO2 SLP090 T00331022
Observed Flight Rules
Jan-20 @ 12:56 UTC (15 minutes ago) Visual Flight Rules
Wind Visibility Clouds
240° at 14 knots
 Gusting to 19 knots
10 miles
  • Clear skies
Temperatures Readings
Current 3°C / 37°F
Dewpoint -2°C / 28°F
Humidity 70%
Altimeter 29.8" Hg
Pressure 1009 hPa
Elevation 3
METAR KGON 201256Z 24014G19KT 10SM CLR 03/M02 A2980 RMK AO2 SLP090 T00331022
Observed Flight Rules
Jan-20 @ 12:56 UTC
(15 minutes ago)
VFR
Wind Visibility
240° at 14 knots
 Gusting to 19 knots
10 miles
Clouds
  • Clear skies
Temperature Dewpoint
3°C / 37°F -2°C / 28°F
Humidity Altimeter Pressure
70% 29.8" Hg 1009 hPa